Kirikkale, Turkey

8:12 AM EET on February 10, 2016 (GMT +0200)
kerisli | | Change Station
CLOSE
Current Station
Personal Weather Station
Location: Kerişli, ANKARA PROVINCE
Elevation: 3117 ft
Nearby Weather Stations

Elev 3117 ft 39.70 °N, 33.11 °E | Updated 47 minutes ago

Mist
Mist
20.3 °F
Feels Like 20 °F
N
0.9
Wind Variable Wind from SW
Gusts 1.0 mph

Today
High -- | Low -- °F
--% Chance of Precip.
Yesterday
High -- | Low -- °F
Precip. -- in
Pressure 30.12 in
Visibility -9999.0 miles
Clouds
Windchill 20 °F
Dew Point 19 °F
Humidity 93%
Rainfall 0.00 in
Snow Depth Not available.
6:45 AM 5:15 PM
Waxing Crescent, 4% visible
METAR LTAC 100550Z 32003KT 290V010 4400 BR NSC M05/M06 Q1020 BECMG TL0650 7000
Pressure 30.12 in
Visibility -9999.0 miles
Clouds
Windchill 20 °F
Dew Point 19 °F
Humidity 93%
Rainfall 0.00 in
Snow Depth Not available.
6:45 AM 5:15 PM
Waxing Crescent, 4% visible
METAR LTAC 100550Z 32003KT 290V010 4400 BR NSC M05/M06 Q1020 BECMG TL0650 7000

10-Day Weather Forecast

Almanac

Astronomy

Feb. 10, 2016 Rise Set
Actual Time
Civil Twilight
Nautical Twilight
Astronomical Twilight
Moon
Length of Visible Light
Length of Day
Tomorrow will be .
, % of the Moon is Illuminated

Today's Extremes

Country Highs Country Lows

Community

WunderPhotos

Upload Photos

1,891,826 photos uploaded!

WunderBlog® & News

Nearby

Air Quality

  Air Quality AQ Index Pollutant
Not available.

Snow Depth

Station Depth Elevation

Earthquake Activity

City Distance Mag. Time & Date
Minimum magnitude displayed is 2.5.

Coastal Water Temperatures

Place Temperature

Stations

Nearby Weather Stations

Station Location Temp. Windchill Dew Point Humidity Wind Precip. Elev Updated Type